Time;durP1;ratioP1;P1;durP2;ratioP2;P2;SDS_P1;SDS_P2;PMS_P1;PMS_P2;Temp;Humidity;BMP_temperature;BMP_pressure;BME280_temperature;BME280_humidity;BME280_pressure;Samples;Min_cycle;Max_cycle;Signal;HPM_P1;HPM_P2
2021/06/14 00:01:34;;;;;;;462.97;338.20;;;;;;;12.37;57.92;99460.78;5021844;28;20092;-66
2021/06/14 00:04:00;;;;;;;462.00;331.47;;;;;;;12.30;58.26;99452.31;5032032;28;20037;-66
2021/06/14 00:06:26;;;;;;;462.40;335.87;;;;;;;12.23;58.55;99453.25;5024410;28;20026;-66
2021/06/14 00:08:51;;;;;;;456.77;324.83;;;;;;;12.22;58.75;99448.16;5023950;28;20045;-65
2021/06/14 00:11:17;;;;;;;456.50;313.70;;;;;;;12.25;58.68;99443.81;5021214;28;20091;-66
2021/06/14 00:13:43;;;;;;;463.20;328.80;;;;;;;12.22;58.91;99450.72;5021083;28;20029;-66
2021/06/14 00:16:09;;;;;;;459.60;324.73;;;;;;;12.22;59.01;99450.72;5032534;28;20403;-66
2021/06/14 00:18:36;;;;;;;458.23;313.80;;;;;;;12.19;59.27;99450.72;5023256;28;20041;-66
2021/06/14 00:21:11;;;;;;;459.37;323.10;;;;;;;12.17;59.13;99448.19;5024744;28;20438;-65
2021/06/14 00:23:38;;;;;;;468.73;320.35;;;;;;;12.21;58.03;99449.00;5020050;28;20057;-66
2021/06/14 00:26:10;;;;;;;457.87;326.77;;;;;;;12.19;58.31;99450.72;5024090;28;20034;-66
2021/06/14 00:28:38;;;;;;;464.97;322.53;;;;;;;12.17;59.00;99450.78;5020305;28;20042;-66
2021/06/14 00:31:04;;;;;;;457.10;316.00;;;;;;;12.20;58.69;99448.16;5023663;28;20025;-66
2021/06/14 00:33:30;;;;;;;458.23;315.73;;;;;;;12.18;58.77;99447.31;5023974;28;20025;-66
2021/06/14 00:35:56;;;;;;;462.00;318.80;;;;;;;12.19;59.04;99443.88;5024225;28;20461;-66
2021/06/14 00:38:22;;;;;;;459.83;328.40;;;;;;;12.12;59.23;99442.25;5023909;28;20087;-66
2021/06/14 00:40:49;;;;;;;461.83;332.03;;;;;;;12.03;59.19;99426.09;5020221;28;20529;-66
2021/06/14 00:43:15;;;;;;;464.63;326.90;;;;;;;12.10;59.12;99435.41;5021667;28;20030;-65
2021/06/14 00:45:47;;;;;;;459.60;318.27;;;;;;;12.11;59.41;99432.00;5030466;28;20299;-65
2021/06/14 00:48:12;;;;;;;454.20;301.60;;;;;;;11.96;59.79;99430.47;5023576;28;20573;-65
2021/06/14 00:50:48;;;;;;;462.27;317.80;;;;;;;11.88;59.94;99440.81;5022474;28;20284;-65
2021/06/14 00:53:55;;;;;;;463.87;318.33;;;;;;;11.80;60.48;99440.03;5022737;28;20034;-65
2021/06/14 00:56:22;;;;;;;456.77;311.90;;;;;;;11.70;61.08;99441.00;4955908;28;20287;-65
2021/06/14 00:58:48;;;;;;;457.57;311.97;;;;;;;11.66;61.47;99439.34;4956456;28;20279;-65
2021/06/14 01:01:13;;;;;;;456.93;313.70;;;;;;;11.62;61.59;99435.09;4954385;28;20303;-65
2021/06/14 01:03:39;;;;;;;457.93;319.30;;;;;;;11.57;62.04;99431.72;4957042;28;20050;-66
2021/06/14 01:06:08;;;;;;;456.67;314.93;;;;;;;11.50;61.62;99437.75;4955855;28;20408;-66
2021/06/14 01:08:36;;;;;;;462.07;322.40;;;;;;;11.53;62.19;99439.47;4956235;28;20443;-65
2021/06/14 01:11:06;;;;;;;459.33;317.53;;;;;;;11.52;62.30;99436.03;4954026;28;20287;-65
2021/06/14 01:13:40;;;;;;;458.33;314.67;;;;;;;11.42;62.64;99431.84;4957054;28;20271;-65
2021/06/14 01:16:23;;;;;;;455.10;306.57;;;;;;;11.42;62.41;99427.56;4955825;28;20286;-65
2021/06/14 01:19:07;;;;;;;461.37;317.73;;;;;;;11.51;62.42;99425.78;4954192;28;20273;-65
2021/06/14 01:22:09;;;;;;;458.87;314.33;;;;;;;11.60;61.32;99429.09;4954620;28;20307;-65
2021/06/14 01:24:40;;;;;;;464.93;310.87;;;;;;;11.58;61.50;99417.16;4952726;28;20278;-64
2021/06/14 01:27:12;;;;;;;455.13;304.77;;;;;;;11.64;61.62;99417.94;4955884;28;20366;-64
2021/06/14 01:29:39;;;;;;;464.87;317.50;;;;;;;11.67;61.47;99414.50;4972170;28;20320;-64
2021/06/14 01:32:07;;;;;;;458.63;312.10;;;;;;;11.61;61.76;99412.84;5023736;28;20273;-64
2021/06/14 01:34:39;;;;;;;461.07;311.20;;;;;;;11.56;62.37;99413.75;5020470;28;20696;-64
2021/06/14 01:37:06;;;;;;;460.40;314.07;;;;;;;11.50;62.47;99417.22;5023289;28;20311;-66
2021/06/14 01:39:37;;;;;;;462.80;322.70;;;;;;;11.50;62.07;99414.66;5020998;28;20276;-66
2021/06/14 01:42:03;;;;;;;461.97;317.73;;;;;;;11.44;62.83;99413.00;5022150;28;20296;-66
2021/06/14 01:44:31;;;;;;;459.43;315.03;;;;;;;11.49;62.61;99417.25;5020150;28;20265;-66
2021/06/14 01:46:59;;;;;;;456.50;305.23;;;;;;;11.40;62.79;99413.91;5022680;28;20518;-66
2021/06/14 01:49:27;;;;;;;459.30;315.60;;;;;;;11.37;62.76;99410.53;5020491;28;20348;-66
2021/06/14 01:51:53;;;;;;;459.00;312.17;;;;;;;11.36;62.50;99412.25;5021305;28;20286;-66
2021/06/14 01:54:19;;;;;;;459.23;315.17;;;;;;;11.36;62.93;99407.09;5021876;28;20595;-66
2021/06/14 01:56:50;;;;;;;454.60;304.63;;;;;;;11.37;63.27;99408.78;5021720;28;20545;-66
2021/06/14 01:59:23;;;;;;;459.97;305.57;;;;;;;11.34;63.19;99407.97;5020548;28;20269;-65
2021/06/14 02:01:48;;;;;;;457.60;310.57;;;;;;;11.23;62.75;99405.53;5018681;28;20350;-65
2021/06/14 02:04:14;;;;;;;459.13;308.47;;;;;;;11.18;63.69;99407.28;5023203;28;20641;-65
2021/06/14 02:06:43;;;;;;;453.97;293.67;;;;;;;11.16;63.49;99403.84;5023045;28;20145;-66
2021/06/14 02:09:11;;;;;;;459.47;308.93;;;;;;;11.14;63.25;99408.16;5020997;28;20079;-66
2021/06/14 02:11:40;;;;;;;459.27;311.50;;;;;;;11.13;63.60;99401.31;5023338;28;20295;-66
2021/06/14 02:14:06;;;;;;;454.97;299.83;;;;;;;11.13;63.63;99403.03;5023805;28;20288;-66
2021/06/14 02:16:32;;;;;;;455.83;297.00;;;;;;;11.05;64.51;99404.81;5019700;28;20295;-66
2021/06/14 02:18:58;;;;;;;456.50;300.27;;;;;;;11.00;63.99;99387.75;5021188;28;20124;-66
2021/06/14 02:21:24;;;;;;;457.63;301.50;;;;;;;11.07;64.03;99400.53;5021290;28;20296;-66
2021/06/14 02:23:50;;;;;;;457.33;305.47;;;;;;;11.05;64.16;99397.13;5022024;28;20806;-66
2021/06/14 02:26:16;;;;;;;458.70;305.57;;;;;;;11.05;64.47;99395.41;5020005;28;20028;-66
2021/06/14 02:28:41;;;;;;;458.20;297.13;;;;;;;11.05;64.11;99389.41;5020347;28;20367;-66
2021/06/14 02:31:08;;;;;;;457.10;291.10;;;;;;;11.04;64.74;99395.41;5020368;28;20032;-65
2021/06/14 02:33:33;;;;;;;463.43;311.33;;;;;;;11.04;64.49;99395.41;5021107;28;20107;-65
2021/06/14 02:35:59;;;;;;;462.63;302.17;;;;;;;11.11;63.72;99390.25;5028850;28;20613;-65
2021/06/14 02:38:26;;;;;;;456.60;303.87;;;;;;;11.09;64.37;99396.22;5030110;28;20029;-65
2021/06/14 02:40:51;;;;;;;459.40;298.27;;;;;;;11.11;64.11;99382.53;5020871;28;20067;-65
2021/06/14 02:43:21;;;;;;;458.67;297.37;;;;;;;11.19;64.24;99393.56;5022598;28;20292;-65
2021/06/14 02:45:48;;;;;;;458.83;299.97;;;;;;;11.17;64.51;99376.47;5019096;28;20053;-65
2021/06/14 02:48:14;;;;;;;457.53;302.30;;;;;;;11.21;63.98;99393.53;5019172;28;20295;-65
2021/06/14 02:50:41;;;;;;;461.30;304.37;;;;;;;11.10;65.14;99392.81;5019271;28;20292;-65
2021/06/14 02:53:09;;;;;;;458.10;299.80;;;;;;;11.19;64.56;99392.72;5024162;28;20037;-65
2021/06/14 02:55:46;;;;;;;457.37;307.50;;;;;;;11.26;64.53;99387.50;5025060;28;20363;-65
2021/06/14 02:58:11;;;;;;;455.73;293.43;;;;;;;11.25;64.26;99382.38;5023392;28;20363;-65
2021/06/14 03:00:37;;;;;;;456.70;293.23;;;;;;;11.30;64.33;99390.91;5027346;28;20299;-65
2021/06/14 03:03:06;;;;;;;458.73;300.10;;;;;;;11.27;64.45;99381.53;5024141;28;20072;-65
2021/06/14 03:05:32;;;;;;;455.53;298.00;;;;;;;11.20;64.74;99376.47;5024996;28;20354;-65
2021/06/14 03:07:59;;;;;;;457.53;300.10;;;;;;;11.18;64.94;99383.31;5024332;28;20291;-65
2021/06/14 03:10:26;;;;;;;459.17;297.53;;;;;;;11.06;64.91;99376.59;5033692;28;20345;-65
2021/06/14 03:12:54;;;;;;;453.00;288.90;;;;;;;10.92;65.90;99376.69;5022793;28;20295;-65
2021/06/14 03:15:19;;;;;;;458.00;295.10;;;;;;;10.90;66.34;99383.56;5024359;28;20601;-65
2021/06/14 03:17:45;;;;;;;454.17;293.00;;;;;;;11.00;65.33;99387.75;5024646;28;20285;-65
2021/06/14 03:20:12;;;;;;;460.73;295.00;;;;;;;11.00;65.88;99387.75;5026156;28;20041;-65
2021/06/14 03:22:40;;;;;;;458.30;301.17;;;;;;;11.02;65.46;99379.19;5023404;28;20140;-65
2021/06/14 03:25:06;;;;;;;454.00;283.77;;;;;;;11.10;65.55;99379.97;5024010;28;20404;-65
2021/06/14 03:27:33;;;;;;;454.87;283.33;;;;;;;11.10;66.08;99377.41;5025743;28;20635;-65
2021/06/14 03:29:59;;;;;;;449.27;276.97;;;;;;;11.17;65.93;99373.91;5023058;28;20284;-65
2021/06/14 03:32:24;;;;;;;455.10;290.87;;;;;;;11.25;65.23;99385.81;5024790;28;20287;-65
2021/06/14 03:34:52;;;;;;;457.43;293.83;;;;;;;11.38;65.41;99383.97;5022165;28;20632;-65
2021/06/14 03:37:18;;;;;;;456.10;296.10;;;;;;;11.46;65.38;99379.59;5023615;28;20373;-65
2021/06/14 03:39:43;;;;;;;457.17;300.83;;;;;;;11.57;64.65;99380.34;5031420;28;20763;-65
2021/06/14 03:42:09;;;;;;;455.97;297.57;;;;;;;11.64;64.54;99374.28;5025405;28;20285;-65
2021/06/14 03:44:36;;;;;;;465.03;316.47;;;;;;;11.71;64.39;99369.94;5025095;28;20113;-65
2021/06/14 03:47:02;;;;;;;458.23;312.23;;;;;;;11.86;64.12;99378.31;5025258;28;20063;-64
2021/06/14 03:49:27;;;;;;;466.40;320.17;;;;;;;12.04;63.81;99379.81;5022841;28;20965;-65
2021/06/14 03:51:52;;;;;;;458.77;320.83;;;;;;;12.31;63.30;99382.00;5025585;28;20136;-64
2021/06/14 03:54:18;;;;;;;467.90;335.17;;;;;;;12.54;62.36;99378.25;5032245;28;20030;-65
2021/06/14 03:56:43;;;;;;;463.10;330.23;;;;;;;12.80;61.59;99377.00;5024406;28;20536;-65
2021/06/14 03:59:09;;;;;;;467.73;342.03;;;;;;;12.86;61.21;99380.34;5023861;28;20040;-64
2021/06/14 04:01:34;;;;;;;464.90;344.60;;;;;;;13.01;61.53;99382.66;5025221;28;20043;-66
2021/06/14 04:06:26;;;;;;;470.70;362.23;;;;;;;13.34;60.30;99389.84;5024818;28;20120;-65
2021/06/14 04:08:52;;;;;;;479.17;376.67;;;;;;;13.33;60.45;99382.97;5022447;28;20277;-64
2021/06/14 04:11:18;;;;;;;472.07;362.20;;;;;;;13.34;60.16;99394.97;5025237;28;20026;-64
2021/06/14 04:13:45;;;;;;;472.50;368.97;;;;;;;13.47;59.60;99388.72;5024101;28;20035;-64
2021/06/14 04:16:12;;;;;;;471.57;365.27;;;;;;;13.57;59.52;99397.16;5023399;28;20038;-64
2021/06/14 04:18:37;;;;;;;467.90;364.73;;;;;;;13.68;58.89;99395.19;5021167;28;20137;-64
2021/06/14 04:21:03;;;;;;;470.67;369.20;;;;;;;13.65;58.49;99396.13;5025022;28;20219;-64
2021/06/14 04:23:28;;;;;;;474.27;385.93;;;;;;;13.65;58.65;99396.13;5032967;28;20026;-65
2021/06/14 04:25:54;;;;;;;473.07;375.67;;;;;;;13.75;58.22;99395.94;5022988;28;20041;-65
2021/06/14 04:28:19;;;;;;;476.70;393.13;;;;;;;13.84;57.82;99390.59;5023720;28;20378;-64
2021/06/14 04:30:44;;;;;;;474.33;370.80;;;;;;;13.84;57.19;99396.59;5025243;28;20033;-64
2021/06/14 04:33:10;;;;;;;472.03;383.83;;;;;;;13.88;57.86;99384.50;5022346;28;20033;-64
2021/06/14 04:35:35;;;;;;;473.93;393.47;;;;;;;14.02;56.93;99385.06;5022398;28;20029;-64
2021/06/14 04:38:01;;;;;;;478.63;394.17;;;;;;;13.96;56.88;99390.38;5023654;28;20030;-64
2021/06/14 04:40:27;;;;;;;483.20;392.87;;;;;;;14.00;56.48;99392.81;5021290;28;20367;-64
2021/06/14 04:42:52;;;;;;;476.53;387.57;;;;;;;13.97;56.39;99382.59;5023036;28;20034;-64
2021/06/14 04:45:18;;;;;;;477.37;402.83;;;;;;;14.13;56.27;99378.78;5023635;28;20892;-64
2021/06/14 04:47:45;;;;;;;472.33;393.83;;;;;;;14.12;56.09;99386.59;5021498;28;20071;-64
2021/06/14 04:50:12;;;;;;;478.63;409.77;;;;;;;14.37;55.17;99380.03;5021492;28;20033;-64
2021/06/14 04:52:37;;;;;;;474.73;401.33;;;;;;;14.44;54.47;99383.31;5027081;28;20034;-64
2021/06/14 04:55:03;;;;;;;483.53;425.10;;;;;;;14.46;54.15;99390.16;5023333;28;20094;-65
2021/06/14 04:57:29;;;;;;;477.47;409.90;;;;;;;14.53;53.12;99380.53;5022619;28;20402;-64
2021/06/14 04:59:54;;;;;;;477.83;407.33;;;;;;;14.50;52.79;99386.63;5022454;28;20037;-64
2021/06/14 05:02:19;;;;;;;476.00;408.60;;;;;;;14.76;52.81;99387.75;5025059;28;20038;-65
2021/06/14 05:04:45;;;;;;;493.83;439.50;;;;;;;14.80;52.70;99387.66;5022620;28;20353;-64
2021/06/14 05:07:10;;;;;;;482.80;429.07;;;;;;;14.96;52.95;99388.13;5023320;28;20124;-65
2021/06/14 05:09:36;;;;;;;490.57;436.93;;;;;;;14.96;51.54;99396.72;5022782;28;20684;-65
2021/06/14 05:12:01;;;;;;;499.30;445.23;;;;;;;14.97;52.08;99380.34;5023163;28;20049;-65
2021/06/14 05:14:27;;;;;;;500.87;447.23;;;;;;;15.24;51.35;99390.84;5023421;28;20022;-65
2021/06/14 05:16:52;;;;;;;517.00;462.83;;;;;;;15.17;51.95;99391.91;5023017;28;20029;-65
2021/06/14 05:19:18;;;;;;;497.60;443.13;;;;;;;15.44;51.06;99389.47;5023158;28;20108;-65
2021/06/14 05:21:43;;;;;;;512.17;458.17;;;;;;;15.41;51.01;99397.28;5020996;28;20041;-66
2021/06/14 05:24:09;;;;;;;505.03;451.40;;;;;;;15.30;50.67;99391.56;5024114;28;20042;-65
2021/06/14 05:26:34;;;;;;;511.10;457.00;;;;;;;15.34;50.39;99382.84;5020946;28;20030;-65
2021/06/14 05:29:00;;;;;;;508.33;453.90;;;;;;;15.52;49.68;99384.13;5022022;28;20038;-65
2021/06/14 05:31:25;;;;;;;531.47;476.90;;;;;;;15.72;49.07;99386.16;5023332;28;20033;-65
2021/06/14 05:33:51;;;;;;;526.57;471.47;;;;;;;15.92;49.68;99383.84;5021706;28;20037;-65
2021/06/14 05:36:16;;;;;;;535.97;481.23;;;;;;;16.08;47.57;99376.50;5023429;28;20029;-65
2021/06/14 05:38:41;;;;;;;551.17;495.90;;;;;;;16.05;46.99;99390.38;5030153;28;20044;-65
2021/06/14 05:41:07;;;;;;;558.93;503.53;;;;;;;16.00;47.92;99382.72;5021468;28;20035;-65
2021/06/14 05:43:33;;;;;;;552.63;497.43;;;;;;;16.18;47.69;99390.84;5024773;28;20037;-65
2021/06/14 05:45:58;;;;;;;568.40;512.60;;;;;;;16.42;47.66;99390.97;5021393;28;20039;-65
2021/06/14 05:48:24;;;;;;;568.70;513.17;;;;;;;16.45;47.05;99387.44;5023314;28;20621;-65
2021/06/14 05:50:50;;;;;;;569.53;514.23;;;;;;;16.62;46.72;99389.56;5021179;28;20536;-65
2021/06/14 05:53:16;;;;;;;582.93;526.93;;;;;;;16.66;46.97;99383.38;5020520;28;20033;-65
2021/06/14 05:55:41;;;;;;;584.60;529.20;;;;;;;16.95;46.96;99395.41;5022566;28;20029;-65
2021/06/14 05:58:07;;;;;;;586.20;530.63;;;;;;;16.82;46.70;99388.03;5022691;28;20372;-65
2021/06/14 06:00:33;;;;;;;610.67;553.93;;;;;;;16.73;46.48;99393.50;5020582;28;20036;-65
2021/06/14 06:02:59;;;;;;;601.77;545.67;;;;;;;16.56;46.73;99393.13;5019372;28;20021;-65
2021/06/14 06:05:25;;;;;;;589.50;533.73;;;;;;;16.65;46.75;99392.88;5024201;28;20044;-65
2021/06/14 06:07:50;;;;;;;593.87;538.17;;;;;;;16.88;46.33;99392.16;5023070;28;20169;-65
2021/06/14 06:10:16;;;;;;;607.23;551.37;;;;;;;16.96;46.24;99392.75;5021446;28;20064;-65
2021/06/14 06:12:42;;;;;;;608.90;553.13;;;;;;;17.13;46.52;99382.69;5021213;28;20112;-64
2021/06/14 06:15:10;;;;;;;623.43;567.00;;;;;;;17.42;45.96;99391.22;5026471;28;20370;-64
2021/06/14 06:17:35;;;;;;;626.07;569.73;;;;;;;17.28;45.49;99392.53;5027359;28;20307;-64
2021/06/14 06:20:02;;;;;;;640.07;582.93;;;;;;;17.46;45.53;99390.22;5022847;28;20067;-64
2021/06/14 06:22:28;;;;;;;629.23;572.90;;;;;;;17.35;46.16;99386.22;5021187;28;20037;-64
2021/06/14 06:24:53;;;;;;;630.43;574.07;;;;;;;17.42;45.12;99392.06;5023751;28;20121;-66
2021/06/14 06:27:19;;;;;;;634.53;577.90;;;;;;;17.58;44.83;99380.28;5027942;28;20075;-65
2021/06/14 06:29:44;;;;;;;645.87;588.80;;;;;;;17.31;44.61;99389.00;5022398;28;20025;-64
2021/06/14 06:32:10;;;;;;;638.63;582.10;;;;;;;17.68;44.76;99380.81;5019923;28;20355;-64
2021/06/14 06:34:37;;;;;;;643.60;586.53;;;;;;;17.61;43.13;99387.13;5021508;28;20026;-64
2021/06/14 06:37:02;;;;;;;646.73;590.23;;;;;;;17.83;42.90;99393.22;5020259;28;20061;-65
2021/06/14 06:39:28;;;;;;;652.03;594.97;;;;;;;17.59;42.05;99384.59;5020191;28;20449;-66
2021/06/14 06:41:53;;;;;;;651.60;594.53;;;;;;;17.34;42.96;99394.94;5020580;28;20314;-65
2021/06/14 06:44:19;;;;;;;654.53;597.27;;;;;;;17.46;42.04;99382.44;5020509;28;20310;-65
2021/06/14 06:46:44;;;;;;;650.03;592.73;;;;;;;17.68;42.59;99386.00;5027735;28;20179;-65
2021/06/14 06:49:10;;;;;;;661.43;604.07;;;;;;;18.00;41.80;99377.03;5022174;28;20398;-65
2021/06/14 06:51:36;;;;;;;664.00;606.60;;;;;;;18.01;41.45;99378.72;5023230;28;20104;-65
2021/06/14 06:54:11;;;;;;;657.47;600.40;;;;;;;18.19;40.94;99378.91;5021363;28;20072;-64
2021/06/14 06:56:48;;;;;;;665.15;607.63;;;;;;;18.37;40.54;99381.72;5021476;28;20108;-64
2021/06/14 06:59:14;;;;;;;672.67;615.40;;;;;;;18.48;40.16;99382.13;5022488;28;20072;-64
2021/06/14 07:01:39;;;;;;;675.27;617.67;;;;;;;18.62;39.53;99378.13;5020610;28;20434;-64
2021/06/14 07:04:07;;;;;;;680.17;622.63;;;;;;;18.63;39.25;99382.38;5018016;28;20037;-63
2021/06/14 07:06:33;;;;;;;691.47;633.63;;;;;;;18.71;39.38;99377.72;5020629;28;20036;-64
2021/06/14 07:08:59;;;;;;;673.43;616.20;;;;;;;18.17;39.56;99377.25;5021732;28;20067;-64
2021/06/14 07:11:26;;;;;;;684.87;626.90;;;;;;;17.94;40.18;99378.13;5023227;28;20427;-64
2021/06/14 07:13:53;;;;;;;666.43;609.47;;;;;;;17.99;40.32;99383.97;5024393;28;20102;-64
2021/06/14 07:16:19;;;;;;;665.07;608.17;;;;;;;18.01;39.45;99382.19;5022658;28;20045;-63
2021/06/14 07:18:44;;;;;;;672.33;615.23;;;;;;;18.16;40.65;99381.59;5037038;28;20026;-65
2021/06/14 07:21:10;;;;;;;688.27;630.10;;;;;;;18.75;39.82;99385.44;5021248;28;20375;-64
2021/06/14 07:23:35;;;;;;;677.87;620.13;;;;;;;19.11;38.61;99397.75;5021041;28;20048;-65
2021/06/14 07:26:02;;;;;;;703.10;644.97;;;;;;;19.25;38.24;99388.53;5019428;28;20287;-65
2021/06/14 07:28:27;;;;;;;708.60;650.53;;;;;;;19.31;38.76;99388.31;5023255;28;20041;-63
2021/06/14 07:30:53;;;;;;;728.33;669.53;;;;;;;19.66;38.48;99386.78;5020661;28;20026;-64
2021/06/14 07:33:18;;;;;;;730.30;671.83;;;;;;;19.68;38.18;99387.59;5028995;28;20033;-65
2021/06/14 07:35:44;;;;;;;734.90;675.97;;;;;;;19.79;37.51;99391.41;5021504;28;20040;-65
2021/06/14 07:38:11;;;;;;;741.73;682.63;;;;;;;19.33;38.89;99389.91;5020011;28;20030;-63
2021/06/14 07:40:37;;;;;;;749.23;689.90;;;;;;;18.94;39.32;99387.22;5027567;28;20454;-64
2021/06/14 07:43:04;;;;;;;742.23;683.13;;;;;;;19.04;39.20;99390.28;5026716;28;20041;-65
2021/06/14 07:45:29;;;;;;;742.83;683.87;;;;;;;18.71;39.75;99390.72;5023552;28;20124;-64
2021/06/14 07:47:55;;;;;;;747.90;688.33;;;;;;;18.96;38.71;99389.75;5027150;28;20082;-62
2021/06/14 07:50:20;;;;;;;722.87;664.60;;;;;;;18.36;39.37;99378.25;5032125;28;20069;-65
2021/06/14 07:52:46;;;;;;;714.07;655.80;;;;;;;18.61;39.94;99383.38;5033023;28;20390;-63
2021/06/14 07:55:12;;;;;;;704.20;646.33;;;;;;;18.93;38.39;99385.50;5023327;28;20069;-63
2021/06/14 07:57:38;;;;;;;717.10;658.97;;;;;;;19.09;38.25;99380.56;5023918;28;20163;-65
2021/06/14 08:00:07;;;;;;;724.67;666.27;;;;;;;19.21;38.10;99376.59;5022548;28;20044;-66
2021/06/14 08:02:37;;;;;;;715.60;657.30;;;;;;;19.03;38.24;99376.44;5022041;28;20037;-64
2021/06/14 08:05:05;;;;;;;721.93;663.30;;;;;;;19.16;37.54;99375.03;5023706;28;20026;-64
2021/06/14 08:07:32;;;;;;;731.13;672.50;;;;;;;19.44;36.75;99371.28;5024913;28;20382;-64
2021/06/14 08:10:02;;;;;;;736.37;677.53;;;;;;;19.39;36.71;99375.81;5023795;28;20045;-64
2021/06/14 08:12:27;;;;;;;738.33;679.43;;;;;;;19.69;36.82;99358.88;5023072;28;20026;-65
2021/06/14 08:14:53;;;;;;;749.37;690.20;;;;;;;19.87;36.41;99350.25;5023036;28;20327;-65
2021/06/14 08:17:19;;;;;;;757.33;697.30;;;;;;;19.85;36.68;99346.06;5023868;28;20029;-65
2021/06/14 08:27:20;;;;;;;759.93;700.40;;;;;;;18.83;38.53;99345.25;5021993;28;20516;-64
2021/06/14 08:29:45;;;;;;;735.63;676.53;;;;;;;18.25;39.17;99337.13;5025871;28;20029;-64
2021/06/14 08:32:11;;;;;;;718.03;659.50;;;;;;;18.39;39.86;99328.81;5022831;28;20068;-64
2021/06/14 08:34:36;;;;;;;724.40;665.63;;;;;;;18.96;39.55;99338.63;5021614;28;20026;-65
2021/06/14 08:37:02;;;;;;;709.57;651.40;;;;;;;19.23;39.58;99331.41;5023088;28;20030;-65
2021/06/14 08:39:27;;;;;;;712.20;653.70;;;;;;;18.95;39.97;99330.88;5022847;28;20036;-64
2021/06/14 08:41:54;;;;;;;720.53;661.57;;;;;;;18.87;39.41;99323.41;5019559;28;20469;-64
2021/06/14 08:44:19;;;;;;;730.33;671.27;;;;;;;19.12;40.16;99339.66;5022185;28;20265;-64
2021/06/14 08:46:48;;;;;;;734.73;675.33;;;;;;;19.42;39.73;99341.88;5022114;28;20033;-65
2021/06/14 08:49:13;;;;;;;738.07;678.87;;;;;;;19.84;38.49;99336.53;5020378;28;20069;-65
2021/06/14 08:51:40;;;;;;;752.03;691.63;;;;;;;20.14;39.13;99342.09;5020618;28;20152;-65
2021/06/14 08:54:07;;;;;;;736.97;677.90;;;;;;;19.31;40.96;99336.28;5021966;28;20030;-64
2021/06/14 08:56:33;;;;;;;746.03;686.33;;;;;;;18.84;41.96;99351.28;5020938;28;20091;-65
2021/06/14 08:58:58;;;;;;;697.87;639.43;;;;;;;18.24;43.60;99345.84;5019721;28;20025;-64
2021/06/14 09:01:25;;;;;;;687.27;629.20;;;;;;;18.52;43.54;99340.44;5018918;28;20394;-65
2021/06/14 09:03:50;;;;;;;701.50;642.63;;;;;;;18.63;43.70;99337.38;5021754;28;20045;-64
2021/06/14 09:06:16;;;;;;;697.03;638.80;;;;;;;18.91;42.37;99334.53;5024786;28;20028;-64
2021/06/14 09:08:53;;;;;;;694.63;636.63;;;;;;;18.64;42.55;99334.72;5026729;28;20054;-63
2021/06/14 09:11:19;;;;;;;684.50;626.57;;;;;;;18.69;43.26;99342.34;5025650;28;20028;-65
2021/06/14 09:13:45;;;;;;;692.23;634.43;;;;;;;18.84;41.99;99341.72;5025785;28;20025;-65
2021/06/14 09:16:13;;;;;;;685.47;627.40;;;;;;;18.89;42.47;99331.13;5022684;28;20030;-64
2021/06/14 09:18:41;;;;;;;692.87;634.57;;;;;;;18.69;42.97;99326.75;5021779;28;20045;-64
2021/06/14 09:21:07;;;;;;;687.57;630.03;;;;;;;19.39;41.30;99326.41;5021190;28;20037;-65
2021/06/14 09:23:47;;;;;;;718.57;659.93;;;;;;;19.88;40.46;99323.31;5022241;28;20056;-64
2021/06/14 09:26:28;;;;;;;718.80;660.20;;;;;;;20.03;39.41;99329.56;5023710;28;20068;-64
2021/06/14 09:29:06;;;;;;;748.10;688.33;;;;;;;19.92;39.94;99332.69;5022091;28;20033;-64
2021/06/14 09:31:40;;;;;;;753.33;693.90;;;;;;;20.51;38.49;99323.84;5025072;28;20442;-64
2021/06/14 09:34:06;;;;;;;754.63;695.63;;;;;;;20.45;38.75;99327.59;5025995;28;20057;-66
2021/06/14 09:36:32;;;;;;;776.27;716.03;;;;;;;20.66;38.25;99310.09;5025207;28;20033;-65
2021/06/14 09:39:12;;;;;;;771.07;711.53;;;;;;;20.92;37.43;99322.66;5023797;28;20030;-64
2021/06/14 09:41:51;;;;;;;799.70;738.87;;;;;;;21.17;37.02;99311.88;5023543;28;20275;-66
2021/06/14 09:44:47;;;;;;;787.97;727.83;;;;;;;20.29;37.69;99315.34;5021706;28;20034;-66
2021/06/14 09:47:13;;;;;;;;;;;;;;;19.50;39.89;99319.84;5013986;28;20542;-64
2021/06/14 09:49:40;;;;;;;753.07;693.97;;;;;;;19.56;39.88;99300.53;5021722;28;19971;-65
2021/06/14 09:52:12;;;;;;;745.30;686.27;;;;;;;19.35;40.25;99297.06;5024676;28;20030;-64
2021/06/14 09:54:37;;;;;;;741.80;683.00;;;;;;;19.66;39.59;99290.53;5024569;28;20523;-64
2021/06/14 09:57:05;;;;;;;761.17;701.50;;;;;;;20.28;38.37;99279.81;5024079;28;20045;-64
2021/06/14 09:59:44;;;;;;;772.90;713.07;;;;;;;20.48;37.78;99274.50;5023690;28;20030;-65
2021/06/14 10:02:17;;;;;;;770.50;710.97;;;;;;;20.75;36.89;99277.53;5025936;28;20033;-65
2021/06/14 10:04:53;;;;;;;784.43;724.57;;;;;;;20.65;36.63;99273.69;5024314;28;20092;-65
2021/06/14 10:07:20;;;;;;;789.17;728.77;;;;;;;20.84;36.20;99277.88;5026613;28;20076;-65
2021/06/14 10:09:48;;;;;;;789.73;729.53;;;;;;;20.62;37.30;99272.09;5024920;28;20414;-65
2021/06/14 10:12:28;;;;;;;798.17;737.27;;;;;;;20.57;37.53;99258.44;5025436;28;20298;-66
2021/06/14 10:15:00;;;;;;;794.03;733.67;;;;;;;20.80;36.84;99252.91;5022989;28;20175;-66
2021/06/14 10:17:37;;;;;;;796.47;735.63;;;;;;;20.67;37.11;99245.75;5020826;28;20033;-65
2021/06/14 10:20:10;;;;;;;805.03;744.10;;;;;;;20.64;37.10;99259.81;5022885;28;20129;-65
2021/06/14 10:22:36;;;;;;;799.27;738.83;;;;;;;20.28;38.22;99261.59;5028715;28;20116;-65
2021/06/14 10:25:03;;;;;;;787.90;727.13;;;;;;;20.21;37.34;99252.38;5023907;28;20025;-65
2021/06/14 10:27:30;;;;;;;781.30;721.23;;;;;;;20.56;37.24;99245.47;5021938;28;20079;-66
2021/06/14 10:29:55;;;;;;;792.23;732.33;;;;;;;20.72;36.94;99235.97;5026085;28;20033;-66
2021/06/14 10:32:22;;;;;;;794.93;734.50;;;;;;;21.06;36.46;99232.47;5023397;28;20029;-66
2021/06/14 10:34:49;;;;;;;807.63;745.97;;;;;;;20.64;36.77;99228.53;5023165;28;20044;-66
2021/06/14 10:37:15;;;;;;;799.43;739.10;;;;;;;20.82;36.90;99217.19;5022725;28;20030;-66
2021/06/14 10:39:46;;;;;;;808.20;747.60;;;;;;;21.04;36.29;99216.06;5025141;28;20025;-66
2021/06/14 10:42:13;;;;;;;820.10;758.43;;;;;;;21.30;36.06;99218.19;5022473;28;20394;-66
2021/06/14 10:44:39;;;;;;;816.73;755.27;;;;;;;21.18;36.26;99214.44;5022617;28;20026;-66
2021/06/14 10:47:08;;;;;;;824.73;762.90;;;;;;;21.43;35.70;99208.75;5020338;28;20022;-66
2021/06/14 10:49:35;;;;;;;819.60;758.60;;;;;;;21.25;35.95;99204.56;5023665;28;20125;-66
2021/06/14 10:52:02;;;;;;;815.23;753.57;;;;;;;20.94;36.76;99197.47;5027057;28;20029;-65
2021/06/14 10:54:43;;;;;;;815.30;754.03;;;;;;;21.38;35.65;99197.75;5022182;28;20036;-66
2021/06/14 10:57:10;;;;;;;815.80;754.60;;;;;;;21.28;35.72;99201.78;5028154;28;20037;-66
2021/06/14 10:59:46;;;;;;;820.13;758.80;;;;;;;21.18;35.49;99197.97;5024844;28;20087;-66
2021/06/14 11:02:14;;;;;;;830.33;768.77;;;;;;;21.26;35.24;99196.63;5023388;28;20060;-66
2021/06/14 11:04:42;;;;;;;835.10;773.43;;;;;;;21.51;33.87;99185.72;5022336;28;20037;-66
2021/06/14 11:07:07;;;;;;;836.57;774.70;;;;;;;21.58;33.96;99191.44;5023193;28;20087;-66
2021/06/14 11:09:44;;;;;;;845.47;783.30;;;;;;;21.73;34.39;99191.44;5023964;28;20438;-66
2021/06/14 11:12:31;;;;;;;849.47;787.30;;;;;;;21.75;34.44;99194.81;5021026;28;20026;-65
2021/06/14 11:15:08;;;;;;;858.33;795.77;;;;;;;21.88;33.63;99189.75;5027905;28;20065;-67